Time;durP1;ratioP1;P1;durP2;ratioP2;P2;SDS_P1;SDS_P2;PMS_P1;PMS_P2;Temp;Humidity;BMP_temperature;BMP_pressure;BME280_temperature;BME280_humidity;BME280_pressure;Samples;Min_cycle;Max_cycle;Signal;HPM_P1;HPM_P2
2023/01/13 00:01:27;;;;;;;24.75;5.63;;;8.10;99.90;;;;;;5001518;28;20042;-78
2023/01/13 00:03:53;;;;;;;24.60;4.95;;;7.90;99.90;;;;;;4998012;28;20042;-77
2023/01/13 00:06:21;;;;;;;28.25;6.03;;;7.90;99.90;;;;;;5029604;28;20037;-78
2023/01/13 00:08:51;;;;;;;20.50;4.90;;;7.80;99.90;;;;;;5036980;28;20446;-78
2023/01/13 00:11:18;;;;;;;28.35;5.90;;;7.70;99.90;;;;;;5001638;28;20041;-77
2023/01/13 00:13:44;;;;;;;27.70;6.05;;;7.70;99.90;;;;;;4995887;28;20109;-78
2023/01/13 00:16:15;;;;;;;26.02;5.38;;;7.60;99.90;;;;;;5011594;28;20041;-78
2023/01/13 00:18:41;;;;;;;24.15;5.38;;;7.50;99.90;;;;;;5021315;28;20045;-78
2023/01/13 00:21:11;;;;;;;25.63;5.28;;;7.50;99.90;;;;;;5021650;28;20554;-78
2023/01/13 00:23:38;;;;;;;23.45;5.32;;;7.50;99.90;;;;;;5012634;28;20125;-78
2023/01/13 00:26:11;;;;;;;24.58;5.40;;;7.50;99.90;;;;;;5018051;28;20037;-77
2023/01/13 00:28:36;;;;;;;20.15;4.45;;;7.50;99.90;;;;;;5001647;28;20042;-79
2023/01/13 00:31:12;;;;;;;20.40;4.40;;;7.50;99.90;;;;;;5001559;28;20559;-78
2023/01/13 00:33:38;;;;;;;24.80;4.32;;;7.50;99.90;;;;;;5020167;28;20530;-78
2023/01/13 00:36:05;;;;;;;18.83;4.43;;;7.50;99.90;;;;;;5022400;28;20496;-79
2023/01/13 00:38:33;;;;;;;20.23;4.47;;;7.50;99.90;;;;;;5008108;28;20049;-78
2023/01/13 00:40:59;;;;;;;22.38;4.72;;;7.40;99.90;;;;;;5002362;28;20491;-78
2023/01/13 00:43:26;;;;;;;16.77;4.35;;;7.50;99.90;;;;;;5000494;28;20045;-78
2023/01/13 00:45:52;;;;;;;19.98;4.68;;;7.50;99.90;;;;;;5034727;28;20517;-79
2023/01/13 00:48:19;;;;;;;16.77;3.65;;;7.50;99.90;;;;;;5018347;28;20049;-79
2023/01/13 00:50:45;;;;;;;20.00;4.30;;;7.50;99.90;;;;;;4999384;28;20041;-78
2023/01/13 00:53:12;;;;;;;18.35;4.65;;;7.50;99.90;;;;;;5018523;28;20129;-79
2023/01/13 00:55:38;;;;;;;17.27;4.07;;;7.40;99.90;;;;;;5021949;28;20038;-78
2023/01/13 00:58:04;;;;;;;23.20;4.32;;;7.40;99.90;;;;;;5037069;28;20098;-78
2023/01/13 01:00:31;;;;;;;18.63;4.55;;;7.40;99.90;;;;;;5021448;28;20049;-78
2023/01/13 01:02:56;;;;;;;21.00;5.22;;;7.30;99.90;;;;;;5015313;28;20037;-78
2023/01/13 01:05:22;;;;;;;20.13;4.50;;;7.30;99.90;;;;;;5027321;28;20586;-78
2023/01/13 01:07:48;;;;;;;24.40;4.38;;;7.30;99.90;;;;;;5019557;28;20044;-79
2023/01/13 01:10:14;;;;;;;25.58;5.53;;;7.30;99.90;;;;;;5039927;28;20033;-78
2023/01/13 01:12:39;;;;;;;19.30;4.78;;;7.40;99.90;;;;;;5039634;28;20163;-79
2023/01/13 01:15:08;;;;;;;28.55;4.88;;;7.40;99.90;;;;;;5014674;28;20512;-78
2023/01/13 01:17:37;;;;;;;23.58;4.85;;;7.40;99.90;;;;;;5004508;28;20463;-78
2023/01/13 01:20:04;;;;;;;24.63;5.13;;;7.40;99.90;;;;;;5005709;28;20415;-79
2023/01/13 01:22:29;;;;;;;26.92;4.90;;;7.40;99.90;;;;;;5019954;28;20045;-79
2023/01/13 01:24:55;;;;;;;22.08;4.90;;;7.50;99.90;;;;;;5007620;28;20483;-79
2023/01/13 01:27:21;;;;;;;21.35;4.95;;;7.40;99.90;;;;;;5019496;28;20041;-79
2023/01/13 01:29:46;;;;;;;20.25;4.35;;;7.40;99.90;;;;;;5027743;28;20064;-80
2023/01/13 01:32:12;;;;;;;22.38;4.68;;;7.50;99.90;;;;;;5024186;28;20029;-79
2023/01/13 01:34:40;;;;;;;25.98;5.28;;;7.50;99.90;;;;;;5029036;28;20037;-79
2023/01/13 01:37:06;;;;;;;27.05;5.68;;;7.50;99.90;;;;;;5015858;28;20041;-79
2023/01/13 01:39:31;;;;;;;24.00;5.35;;;7.50;99.90;;;;;;5032749;28;20107;-79
2023/01/13 01:44:41;;;;;;;21.25;4.88;;;7.60;99.90;;;;;;5017620;28;20099;-79
2023/01/13 01:47:10;;;;;;;28.00;6.25;;;7.50;99.90;;;;;;5029721;28;20046;-79
2023/01/13 01:49:37;;;;;;;22.15;5.15;;;7.50;99.90;;;;;;5013075;28;20048;-80
2023/01/13 01:52:03;;;;;;;23.33;5.43;;;7.50;99.90;;;;;;5013890;28;20041;-79
2023/01/13 01:54:36;;;;;;;27.50;5.63;;;7.40;99.90;;;;;;5018654;28;20154;-80
2023/01/13 01:57:02;;;;;;;23.85;5.55;;;7.40;99.90;;;;;;5004014;28;20164;-79
2023/01/13 01:59:30;;;;;;;29.15;5.60;;;7.30;99.90;;;;;;5002432;28;20508;-80
2023/01/13 02:01:56;;;;;;;21.70;5.25;;;7.20;99.90;;;;;;5003958;28;20037;-79
2023/01/13 02:04:28;;;;;;;22.77;5.35;;;7.30;99.90;;;;;;5000063;28;20033;-79
2023/01/13 02:06:55;;;;;;;25.38;5.15;;;7.20;99.90;;;;;;5009388;28;20488;-79
2023/01/13 02:09:23;;;;;;;24.10;5.05;;;7.20;99.90;;;;;;5015049;28;20068;-80
2023/01/13 02:14:34;;;;;;;25.20;5.72;;;7.10;99.90;;;;;;5025234;28;20053;-79
2023/01/13 02:17:02;;;;;;;26.77;4.65;;;7.10;99.90;;;;;;4995231;28;20045;-79
2023/01/13 02:20:05;;;;;;;20.20;4.70;;;7.10;99.90;;;;;;5011281;28;20049;-80
2023/01/13 02:24:52;;;;;;;26.58;5.88;;;7.10;99.90;;;;;;4989723;28;20165;-80
2023/01/13 02:26:48;;;;;;;28.77;6.13;;;7.10;99.90;;;;;;4992019;28;20504;-80
2023/01/13 02:32:27;;;;;;;25.67;5.55;;;7.10;99.90;;;;;;5012391;28;20549;-80
2023/01/13 02:35:05;;;;;;;27.05;5.97;;;7.00;99.90;;;;;;4992883;28;20048;-80
2023/01/13 02:37:36;;;;;;;29.85;5.80;;;7.00;99.90;;;;;;5015642;28;20041;-80
2023/01/13 02:40:18;;;;;;;22.77;5.68;;;7.00;99.90;;;;;;5005688;28;20040;-80
2023/01/13 02:46:00;;;;;;;24.48;5.45;;;6.90;99.90;;;;;;5021024;28;20067;-80
2023/01/13 02:48:28;;;;;;;27.10;5.15;;;6.80;99.90;;;;;;5013273;28;20072;-80
2023/01/13 02:51:16;;;;;;;29.55;5.38;;;6.80;99.90;;;;;;5013002;28;20048;-79
2023/01/13 02:53:48;;;;;;;25.92;5.10;;;6.80;99.90;;;;;;5023983;28;20140;-80
2023/01/13 02:56:15;;;;;;;30.55;6.47;;;6.90;99.90;;;;;;5005588;28;20033;-80
2023/01/13 02:58:42;;;;;;;21.30;5.03;;;6.90;99.90;;;;;;5028997;28;20048;-80
2023/01/13 03:01:08;;;;;;;28.45;5.80;;;6.90;99.90;;;;;;5010101;28;20120;-80
2023/01/13 03:03:35;;;;;;;25.48;6.07;;;7.00;99.90;;;;;;4997049;28;20483;-80
2023/01/13 03:06:35;;;;;;;22.58;5.50;;;7.00;99.90;;;;;;5014258;28;20076;-80
2023/01/13 03:09:21;;;;;;;26.70;6.43;;;7.10;99.90;;;;;;5024666;28;20064;-80
2023/01/13 03:12:11;;;;;;;32.42;6.32;;;7.10;99.90;;;;;;5002575;28;20034;-79
2023/01/13 03:14:58;;;;;;;29.55;6.05;;;7.20;99.90;;;;;;4998706;28;20041;-80
2023/01/13 03:17:44;;;;;;;25.73;6.47;;;7.30;99.90;;;;;;5017689;28;20049;-80
2023/01/13 03:20:25;;;;;;;26.70;5.85;;;7.30;99.90;;;;;;5010669;28;20041;-80
2023/01/13 03:23:30;;;;;;;28.65;5.50;;;7.30;99.90;;;;;;5029844;28;20499;-80
2023/01/13 03:26:12;;;;;;;27.27;5.78;;;7.40;99.90;;;;;;5000117;28;20049;-80
2023/01/13 03:29:05;;;;;;;24.73;5.05;;;7.50;99.90;;;;;;5003666;28;20039;-80
2023/01/13 03:31:35;;;;;;;33.42;6.10;;;7.50;99.90;;;;;;4986797;28;20381;-80
2023/01/13 03:34:08;;;;;;;29.77;5.60;;;7.50;99.90;;;;;;4991530;28;20193;-80
2023/01/13 03:36:39;;;;;;;29.00;5.55;;;7.50;99.90;;;;;;5011896;28;20177;-81
2023/01/13 03:39:10;;;;;;;25.65;5.53;;;7.50;99.90;;;;;;5004110;28;20056;-80
2023/01/13 03:41:51;;;;;;;27.98;5.68;;;7.50;99.90;;;;;;5006029;28;20061;-80
2023/01/13 03:44:32;;;;;;;26.92;5.72;;;7.60;99.90;;;;;;5005931;28;20083;-81
2023/01/13 03:47:26;;;;;;;30.92;6.72;;;7.60;99.90;;;;;;5021604;28;20053;-80
2023/01/13 03:49:58;;;;;;;27.75;5.47;;;7.60;99.90;;;;;;5029895;28;20407;-80
2023/01/13 03:52:42;;;;;;;22.02;5.32;;;7.50;99.90;;;;;;5009605;28;20052;-80
2023/01/13 03:55:14;;;;;;;26.90;5.22;;;7.50;99.90;;;;;;5046824;28;20037;-80
2023/01/13 03:58:02;;;;;;;23.67;5.00;;;7.50;99.90;;;;;;5032243;28;20037;-80
2023/01/13 04:00:37;;;;;;;25.48;5.82;;;7.50;99.90;;;;;;5006634;28;20057;-80
2023/01/13 04:03:08;;;;;;;29.48;6.60;;;7.50;99.90;;;;;;5008875;28;20077;-80
2023/01/13 04:05:40;;;;;;;32.85;6.28;;;7.50;99.90;;;;;;5013700;28;20411;-80
2023/01/13 04:08:22;;;;;;;28.60;5.32;;;7.50;99.90;;;;;;5028755;28;20095;-80
2023/01/13 04:11:01;;;;;;;25.03;5.27;;;7.60;99.90;;;;;;5024879;28;20046;-80
2023/01/13 04:13:31;;;;;;;30.60;5.93;;;7.60;99.90;;;;;;5003400;28;20301;-80
2023/01/13 04:15:58;;;;;;;25.15;6.00;;;7.60;99.90;;;;;;5009564;28;20083;-79
2023/01/13 04:18:26;;;;;;;25.40;6.05;;;7.60;99.90;;;;;;5029874;23;20045;-80
2023/01/13 04:20:55;;;;;;;30.00;6.88;;;7.70;99.90;;;;;;5002539;28;20095;-80
2023/01/13 04:23:21;;;;;;;28.13;5.97;;;7.70;99.90;;;;;;5013719;28;20510;-80
2023/01/13 04:25:47;;;;;;;28.73;6.53;;;7.60;99.90;;;;;;4991333;28;20041;-80
2023/01/13 04:28:14;;;;;;;28.48;5.68;;;7.60;99.90;;;;;;5010116;28;20041;-80
2023/01/13 04:30:40;;;;;;;28.23;6.50;;;7.50;99.90;;;;;;4984612;28;20502;-80
2023/01/13 04:33:06;;;;;;;27.75;5.80;;;7.50;99.90;;;;;;4973196;28;20046;-79
2023/01/13 04:35:33;;;;;;;23.92;6.00;;;7.50;99.90;;;;;;4994680;28;20038;-80
2023/01/13 04:38:00;;;;;;;26.20;5.93;;;7.50;99.90;;;;;;4999369;28;20384;-80
2023/01/13 04:40:26;;;;;;;29.58;5.55;;;7.50;99.90;;;;;;5002065;28;20125;-80
2023/01/13 04:42:51;;;;;;;25.23;5.20;;;7.40;99.90;;;;;;4997457;28;20077;-80
2023/01/13 04:45:17;;;;;;;25.33;5.85;;;7.40;99.90;;;;;;4988936;28;20030;-80
2023/01/13 04:47:43;;;;;;;30.05;6.07;;;7.40;99.90;;;;;;4994417;28;20087;-80
2023/01/13 04:50:10;;;;;;;25.73;6.25;;;7.30;99.90;;;;;;4985893;28;20038;-80
2023/01/13 04:52:35;;;;;;;24.13;5.72;;;7.30;99.90;;;;;;5000877;28;20589;-81
2023/01/13 04:55:01;;;;;;;27.15;6.00;;;7.30;99.90;;;;;;4994795;28;20069;-80
2023/01/13 04:57:27;;;;;;;23.17;4.30;;;7.30;99.90;;;;;;4982136;28;20042;-81
2023/01/13 04:59:53;;;;;;;20.23;4.65;;;7.30;99.90;;;;;;4983183;28;20042;-80
2023/01/13 05:02:18;;;;;;;25.13;4.60;;;7.20;99.90;;;;;;4998235;28;20096;-80
2023/01/13 05:04:48;;;;;;;27.42;5.85;;;7.20;99.90;;;;;;4995593;28;20089;-80
2023/01/13 05:07:15;;;;;;;18.60;4.82;;;7.20;99.90;;;;;;4998401;28;20129;-80
2023/01/13 05:09:41;;;;;;;25.95;5.60;;;7.20;99.90;;;;;;4983057;28;20097;-80
2023/01/13 05:17:37;;;;;;;23.42;4.35;;;7.30;99.90;;;;;;5005848;28;20165;-81
2023/01/13 05:20:04;;;;;;;15.70;4.40;;;7.30;99.90;;;;;;4991687;28;20034;-81
2023/01/13 05:25:27;;;;;;;18.00;4.07;;;7.30;99.90;;;;;;4997945;28;20104;-80
2023/01/13 05:27:55;;;;;;;20.77;4.65;;;7.30;99.90;;;;;;4988634;28;20084;-82
2023/01/13 05:30:22;;;;;;;16.77;4.80;;;7.30;99.90;;;;;;5008092;28;20042;-82
2023/01/13 05:32:48;;;;;;;22.92;4.82;;;7.40;99.90;;;;;;4986469;28;20046;-81
2023/01/13 05:35:15;;;;;;;16.50;3.75;;;7.30;99.90;;;;;;5004741;28;20030;-81
2023/01/13 05:37:42;;;;;;;17.77;4.10;;;7.40;99.90;;;;;;4987836;28;20080;-81
2023/01/13 05:43:20;;;;;;;16.63;3.70;;;7.40;99.90;;;;;;4994385;28;20073;-81
2023/01/13 05:45:59;;;;;;;15.33;4.03;;;7.30;99.90;;;;;;4999466;28;20049;-80
2023/01/13 05:48:33;;;;;;;18.30;4.25;;;7.30;99.90;;;;;;4998155;28;20056;-80
2023/01/13 05:51:00;;;;;;;23.58;5.00;;;7.40;99.90;;;;;;4998306;28;20042;-83
2023/01/13 05:53:26;;;;;;;20.52;5.07;;;7.40;99.90;;;;;;4996186;28;20500;-81
2023/01/13 05:55:51;;;;;;;20.58;5.20;;;7.40;99.90;;;;;;4975314;28;20038;-82
2023/01/13 05:58:19;;;;;;;24.17;7.07;;;7.40;99.90;;;;;;4998768;28;20132;-81
2023/01/13 06:00:45;;;;;;;22.63;6.57;;;7.40;99.90;;;;;;4982400;28;20038;-80
2023/01/13 06:03:11;;;;;;;21.35;6.63;;;7.40;99.90;;;;;;4977878;28;20037;-81
2023/01/13 06:05:37;;;;;;;20.77;6.53;;;7.40;99.90;;;;;;4997925;28;20046;-81
2023/01/13 06:08:05;;;;;;;17.50;6.80;;;7.40;99.90;;;;;;4999148;28;20044;-81
2023/01/13 06:10:34;;;;;;;23.30;6.72;;;7.40;99.90;;;;;;4995344;28;20045;-83
2023/01/13 06:13:01;;;;;;;15.52;5.40;;;7.50;99.90;;;;;;5013506;28;20474;-81
2023/01/13 06:15:27;;;;;;;15.15;5.45;;;7.40;99.90;;;;;;4984022;28;20048;-81
2023/01/13 06:17:52;;;;;;;16.05;5.05;;;7.50;99.90;;;;;;4983634;28;20046;-81
2023/01/13 06:20:18;;;;;;;16.35;4.55;;;7.50;99.90;;;;;;4987770;28;20030;-81
2023/01/13 06:22:50;;;;;;;14.68;4.35;;;7.50;99.90;;;;;;5002208;28;20046;-81
2023/01/13 06:25:32;;;;;;;13.10;3.95;;;7.50;99.90;;;;;;5003632;28;20048;-80
2023/01/13 06:27:59;;;;;;;14.07;3.75;;;7.50;99.90;;;;;;5001545;28;20045;-81
2023/01/13 06:30:28;;;;;;;13.25;3.55;;;7.50;99.90;;;;;;4988511;28;20045;-81
2023/01/13 06:32:57;;;;;;;16.92;4.03;;;7.50;99.90;;;;;;4993654;28;20042;-81
2023/01/13 06:35:27;;;;;;;15.23;3.65;;;7.50;99.90;;;;;;5004030;28;20041;-81
2023/01/13 06:37:55;;;;;;;12.02;3.33;;;7.50;99.90;;;;;;5003043;28;20045;-80
2023/01/13 06:40:22;;;;;;;12.63;3.00;;;7.50;99.90;;;;;;4988762;28;20048;-81
2023/01/13 06:45:34;;;;;;;12.55;3.00;;;7.50;99.90;;;;;;5005720;28;20066;-81
2023/01/13 06:47:59;;;;;;;14.75;3.28;;;7.50;99.90;;;;;;4988525;28;20076;-81
2023/01/13 06:50:27;;;;;;;13.55;3.08;;;7.50;99.90;;;;;;5002541;28;20069;-81
2023/01/13 06:52:52;;;;;;;9.60;3.05;;;7.50;99.90;;;;;;4980645;28;20431;-81
2023/01/13 06:55:18;;;;;;;16.15;3.35;;;7.50;99.90;;;;;;4989650;28;20049;-81
2023/01/13 06:57:52;;;;;;;15.02;3.75;;;7.50;99.90;;;;;;4989653;28;20053;-82
2023/01/13 07:00:18;;;;;;;12.00;3.00;;;7.50;99.90;;;;;;5019257;28;20038;-82
2023/01/13 07:02:43;;;;;;;18.65;4.05;;;7.50;99.90;;;;;;4983054;28;20500;-81
2023/01/13 07:05:10;;;;;;;13.38;3.40;;;7.50;99.90;;;;;;5006711;28;20048;-81
2023/01/13 07:07:35;;;;;;;22.67;3.72;;;7.50;99.90;;;;;;4989724;28;20037;-82
2023/01/13 07:10:01;;;;;;;13.32;3.17;;;7.50;99.90;;;;;;4986613;28;20148;-81
2023/01/13 07:12:26;;;;;;;15.10;3.28;;;7.50;99.90;;;;;;4993550;28;20307;-82
2023/01/13 07:17:36;;;;;;;18.50;3.78;;;7.50;99.90;;;;;;5007149;28;20045;-81
2023/01/13 07:20:02;;;;;;;12.50;3.78;;;7.50;99.90;;;;;;4985955;28;20492;-81
2023/01/13 07:22:28;;;;;;;14.82;2.97;;;7.50;99.90;;;;;;4977821;28;20415;-82
2023/01/13 07:24:53;;;;;;;16.40;3.67;;;7.50;99.90;;;;;;4991867;28;20056;-82
2023/01/13 07:27:19;;;;;;;19.17;3.38;;;7.40;99.90;;;;;;4989693;28;20069;-81
2023/01/13 07:29:44;;;;;;;16.15;3.25;;;7.40;99.90;;;;;;4992784;28;20431;-82
2023/01/13 07:32:10;;;;;;;14.98;3.67;;;7.30;99.90;;;;;;4988426;28;20065;-81
2023/01/13 07:34:35;;;;;;;15.52;3.30;;;7.20;99.90;;;;;;4996036;28;20043;-80
2023/01/13 07:37:01;;;;;;;16.38;3.25;;;7.20;99.90;;;;;;4995211;28;20037;-80
2023/01/13 07:39:27;;;;;;;19.60;3.38;;;7.10;99.90;;;;;;4988760;28;20052;-80
2023/01/13 07:44:37;;;;;;;18.10;2.97;;;7.00;99.90;;;;;;5005167;28;20081;-81
2023/01/13 07:47:04;;;;;;;18.77;3.45;;;6.90;99.90;;;;;;4992586;28;20034;-81
2023/01/13 07:49:30;;;;;;;17.20;3.28;;;7.00;99.90;;;;;;4980455;28;20493;-79
2023/01/13 07:51:56;;;;;;;14.80;3.08;;;6.90;99.90;;;;;;4972783;28;20126;-79
2023/01/13 07:54:21;;;;;;;25.30;3.47;;;6.90;99.90;;;;;;4984866;28;20069;-77
2023/01/13 07:56:47;;;;;;;16.83;3.65;;;6.80;99.90;;;;;;4991179;28;20113;-78
2023/01/13 07:59:12;;;;;;;19.80;3.63;;;6.80;99.90;;;;;;4998889;28;20046;-77
2023/01/13 08:01:38;;;;;;;17.33;3.42;;;6.80;99.90;;;;;;4998463;28;20037;-79
2023/01/13 08:04:03;;;;;;;18.52;3.65;;;6.80;99.90;;;;;;4995122;28;20084;-79
2023/01/13 08:06:29;;;;;;;17.33;2.92;;;6.70;99.90;;;;;;4998943;28;20411;-79
2023/01/13 08:08:55;;;;;;;19.52;3.50;;;6.70;99.90;;;;;;4993575;28;20129;-78
2023/01/13 08:11:20;;;;;;;19.90;3.63;;;6.70;99.90;;;;;;4989449;28;20037;-78
2023/01/13 08:13:46;;;;;;;20.77;4.38;;;6.70;99.90;;;;;;4979136;28;20042;-78
2023/01/13 08:16:14;;;;;;;18.75;3.65;;;6.70;99.90;;;;;;4993444;28;20037;-79
2023/01/13 08:18:39;;;;;;;16.90;4.18;;;6.70;99.90;;;;;;4991787;28;20480;-78
2023/01/13 08:21:08;;;;;;;18.58;3.63;;;6.70;99.90;;;;;;4995964;28;20156;-78
2023/01/13 08:23:35;;;;;;;20.85;3.83;;;6.70;99.90;;;;;;4976261;28;20053;-78
2023/01/13 08:26:06;;;;;;;15.88;3.70;;;6.70;99.90;;;;;;5008189;28;20049;-77
2023/01/13 08:28:32;;;;;;;16.33;4.32;;;6.80;99.90;;;;;;5002386;28;20574;-78
2023/01/13 08:30:59;;;;;;;17.95;3.30;;;6.80;99.90;;;;;;4986449;28;20077;-78
2023/01/13 08:33:25;;;;;;;21.35;3.70;;;6.80;99.90;;;;;;4977958;28;20042;-78
2023/01/13 08:35:52;;;;;;;19.98;3.70;;;6.70;99.90;;;;;;4995441;28;20044;-77
2023/01/13 08:38:18;;;;;;;22.02;3.60;;;6.70;99.90;;;;;;4995218;28;20133;-77
2023/01/13 08:40:43;;;;;;;21.13;4.18;;;6.70;99.90;;;;;;4994731;28;20042;-78
2023/01/13 08:43:09;;;;;;;18.48;3.85;;;6.70;99.90;;;;;;4994603;28;20049;-78
2023/01/13 08:45:35;;;;;;;22.42;3.88;;;6.80;99.90;;;;;;4995377;28;20042;-78
2023/01/13 08:48:01;;;;;;;18.25;3.85;;;6.70;99.90;;;;;;4995082;28;20044;-78
2023/01/13 08:50:27;;;;;;;26.85;4.68;;;6.80;99.90;;;;;;4974891;28;20514;-77
2023/01/13 08:52:53;;;;;;;18.42;4.72;;;6.80;99.90;;;;;;4988334;28;20034;-77
2023/01/13 08:55:19;;;;;;;16.23;3.35;;;6.80;99.90;;;;;;4986966;28;20057;-78
2023/01/13 08:57:44;;;;;;;16.75;3.42;;;6.90;99.90;;;;;;4998510;28;20125;-78
2023/01/13 09:00:11;;;;;;;18.63;3.45;;;6.90;99.90;;;;;;4975002;28;20117;-77
2023/01/13 09:02:39;;;;;;;18.13;4.00;;;6.90;99.90;;;;;;5002241;28;20037;-79
2023/01/13 09:05:06;;;;;;;17.17;3.90;;;7.00;99.90;;;;;;5000149;28;20037;-79
2023/01/13 09:07:34;;;;;;;19.83;4.38;;;7.00;99.90;;;;;;4971612;28;20062;-79
2023/01/13 09:10:00;;;;;;;19.95;3.60;;;7.10;99.90;;;;;;4982341;28;20180;-79
2023/01/13 09:15:11;;;;;;;19.15;4.35;;;7.10;99.90;;;;;;4998248;28;20048;-79
2023/01/13 09:17:37;;;;;;;23.35;4.03;;;7.10;99.90;;;;;;4984843;28;20046;-78
2023/01/13 09:20:03;;;;;;;15.65;3.40;;;7.10;99.90;;;;;;4988985;28;20039;-78
2023/01/13 09:22:29;;;;;;;21.40;4.07;;;7.20;99.90;;;;;;4995260;28;20448;-79
2023/01/13 09:24:55;;;;;;;19.27;3.88;;;7.20;99.90;;;;;;4999140;28;20034;-78
2023/01/13 09:27:21;;;;;;;15.68;3.42;;;7.20;99.90;;;;;;4997676;28;20069;-78
2023/01/13 09:29:47;;;;;;;16.85;3.50;;;7.30;99.90;;;;;;4983011;28;20038;-78
2023/01/13 09:32:14;;;;;;;18.50;4.10;;;7.30;99.90;;;;;;4999170;28;20393;-78
2023/01/13 09:37:44;;;;;;;22.27;4.43;;;7.30;99.90;;;;;;5001085;28;20662;-79
2023/01/13 09:40:19;;;;;;;15.77;4.15;;;7.30;99.90;;;;;;4981546;28;20472;-79
2023/01/13 09:45:58;;;;;;;19.40;3.60;;;7.40;99.90;;;;;;4983782;28;20295;-78
2023/01/13 09:48:31;;;;;;;19.92;3.90;;;7.40;99.90;;;;;;4981557;28;20381;-78
2023/01/13 09:51:13;;;;;;;19.77;4.13;;;7.40;99.90;;;;;;4985994;28;20066;-79
2023/01/13 09:54:00;;;;;;;22.55;4.15;;;7.40;99.90;;;;;;4987521;28;20038;-79
2023/01/13 09:56:26;;;;;;;19.08;3.80;;;7.40;99.90;;;;;;4997452;28;20048;-79
2023/01/13 09:58:52;;;;;;;22.30;3.75;;;7.30;99.90;;;;;;5007304;28;20042;-79
2023/01/13 10:01:34;;;;;;;23.63;4.20;;;7.30;99.90;;;;;;4999853;28;20046;-79
2023/01/13 10:04:11;;;;;;;21.27;4.25;;;7.30;99.90;;;;;;5001167;28;20038;-79
2023/01/13 10:06:40;;;;;;;22.63;4.22;;;7.30;99.90;;;;;;4982501;28;20050;-78
2023/01/13 10:09:17;;;;;;;24.67;4.82;;;7.10;99.90;;;;;;4991305;28;20070;-78
2023/01/13 10:14:38;;;;;;;25.77;4.53;;;7.20;99.90;;;;;;4990881;28;20565;-78
2023/01/13 10:17:30;;;;;;;24.30;4.18;;;7.10;99.90;;;;;;4994706;28;20388;-79
2023/01/13 10:20:14;;;;;;;28.40;5.20;;;7.10;99.90;;;;;;4961259;28;20239;-77
2023/01/13 10:23:04;;;;;;;25.35;5.15;;;7.20;99.90;;;;;;4991216;28;20065;-78
2023/01/13 10:26:00;;;;;;;27.60;4.60;;;7.20;99.90;;;;;;4994707;28;20046;-78
2023/01/13 10:28:26;;;;;;;23.40;4.63;;;7.30;99.90;;;;;;4981929;28;20399;-77
2023/01/13 10:30:51;;;;;;;26.67;4.68;;;7.30;99.90;;;;;;4989042;28;20128;-78
2023/01/13 10:33:21;;;;;;;21.35;4.55;;;7.30;99.90;;;;;;4994271;28;20083;-78
2023/01/13 10:35:52;;;;;;;21.05;4.50;;;7.30;99.90;;;;;;4976777;28;20439;-80
2023/01/13 10:38:28;;;;;;;24.17;3.92;;;7.30;99.90;;;;;;4990564;28;20045;-78
2023/01/13 10:40:55;;;;;;;22.90;4.90;;;7.20;99.90;;;;;;4995317;28;20037;-78
2023/01/13 10:43:21;;;;;;;23.45;4.18;;;7.20;99.90;;;;;;4977098;28;20489;-78
2023/01/13 10:46:01;;;;;;;23.88;3.92;;;7.20;99.90;;;;;;4977865;28;20052;-79
2023/01/13 10:48:40;;;;;;;26.55;4.90;;;7.20;99.90;;;;;;4983379;28;20045;-78
2023/01/13 10:51:27;;;;;;;17.88;3.85;;;7.20;99.90;;;;;;4971328;28;20042;-79
2023/01/13 10:54:12;;;;;;;18.13;3.97;;;7.20;99.90;;;;;;4986369;28;20053;-78
2023/01/13 10:56:40;;;;;;;20.17;4.25;;;7.20;99.90;;;;;;5009424;28;20042;-78
2023/01/13 10:59:14;;;;;;;26.05;4.55;;;7.20;99.90;;;;;;4996767;28;20554;-78
2023/01/13 11:01:53;;;;;;;26.45;5.18;;;7.20;99.90;;;;;;4989902;28;20146;-78
2023/01/13 11:04:37;;;;;;;26.25;4.20;;;7.20;99.90;;;;;;4985463;28;20034;-77
2023/01/13 11:07:05;;;;;;;20.08;4.13;;;7.30;99.90;;;;;;4999132;28;20068;-78
2023/01/13 11:09:31;;;;;;;24.83;4.60;;;7.20;99.90;;;;;;4983242;28;20038;-77
2023/01/13 11:11:58;;;;;;;18.77;4.53;;;7.30;99.90;;;;;;5000998;28;20500;-77
2023/01/13 11:14:42;;;;;;;21.63;3.83;;;7.30;99.90;;;;;;4992709;28;20042;-79
2023/01/13 11:17:26;;;;;;;22.48;4.32;;;7.30;99.90;;;;;;4981312;28;20488;-79
2023/01/13 11:20:18;;;;;;;20.80;4.45;;;7.30;99.90;;;;;;4998500;28;20046;-77
2023/01/13 11:22:51;;;;;;;20.27;4.10;;;7.30;99.90;;;;;;4985498;28;20037;-78
2023/01/13 11:25:40;;;;;;;21.45;5.00;;;7.30;99.90;;;;;;4980066;28;20066;-77
2023/01/13 11:28:34;;;;;;;17.00;4.00;;;7.40;99.90;;;;;;4998353;28;20037;-79
2023/01/13 11:31:03;;;;;;;18.77;4.60;;;7.40;99.90;;;;;;5002034;28;20077;-81
2023/01/13 11:33:41;;;;;;;18.27;3.92;;;7.40;99.90;;;;;;4982544;28;20034;-81
2023/01/13 11:36:12;;;;;;;21.63;4.90;;;7.40;99.90;;;;;;4996039;28;20493;-81
2023/01/13 11:38:54;;;;;;;20.98;4.00;;;7.40;99.90;;;;;;4986400;28;20049;-81
2023/01/13 11:41:35;;;;;;;22.03;4.77;;;7.40;99.90;;;;;;4985869;28;20045;-80
2023/01/13 11:44:27;;;;;;;20.92;4.88;;;7.40;99.90;;;;;;5011072;28;20165;-80
2023/01/13 11:46:53;;;;;;;18.38;3.80;;;7.40;99.90;;;;;;4997474;28;20099;-80
2023/01/13 11:49:27;;;;;;;20.52;3.65;;;7.40;99.90;;;;;;5004267;28;20042;-81
2023/01/13 11:52:00;;;;;;;21.98;4.15;;;7.50;99.90;;;;;;4986790;28;20049;-81
2023/01/13 11:54:54;;;;;;;18.10;4.10;;;7.50;99.90;;;;;;4981709;28;20128;-80
2023/01/13 11:57:40;;;;;;;16.08;3.10;;;7.50;99.90;;;;;;4971072;28;20033;-81
2023/01/13 12:00:29;;;;;;;17.40;3.17;;;7.60;99.90;;;;;;5001624;28;20038;-80
2023/01/13 12:03:12;;;;;;;18.25;3.28;;;7.60;99.90;;;;;;5011942;28;20243;-79
2023/01/13 12:06:19;;;;;;;12.93;2.90;;;7.70;99.90;;;;;;4999114;28;20165;-81
2023/01/13 12:09:19;;;;;;;12.48;2.97;;;7.70;99.90;;;;;;4963925;28;20042;-81
2023/01/13 12:12:18;;;;;;;16.73;3.28;;;7.80;99.90;;;;;;4965239;28;20414;-80
2023/01/13 12:15:06;;;;;;;15.60;3.53;;;7.80;99.90;;;;;;4990208;28;20045;-80
2023/01/13 12:18:06;;;;;;;13.70;3.20;;;7.90;99.90;;;;;;4998356;28;20044;-81
2023/01/13 12:21:09;;;;;;;10.90;2.63;;;7.90;99.90;;;;;;4998770;28;20042;-81
2023/01/13 12:23:41;;;;;;;13.13;2.83;;;8.00;99.90;;;;;;4974918;28;20048;-80
2023/01/13 12:26:14;;;;;;;14.73;2.92;;;8.00;99.90;;;;;;4981512;28;20046;-80
2023/01/13 12:28:59;;;;;;;13.18;3.25;;;8.00;99.90;;;;;;5013079;28;20041;-79
2023/01/13 12:31:26;;;;;;;12.43;2.95;;;8.00;99.90;;;;;;4981988;28;20049;-78
2023/01/13 12:34:20;;;;;;;15.45;3.30;;;8.00;99.90;;;;;;5008317;28;20057;-78
2023/01/13 12:37:09;;;;;;;12.05;3.60;;;8.00;99.90;;;;;;4973255;28;20038;-77
2023/01/13 12:40:00;;;;;;;13.57;2.97;;;8.00;99.90;;;;;;5008940;28;20070;-78
2023/01/13 12:45:32;;;;;;;9.95;2.38;;;8.00;99.90;;;;;;4996862;28;20126;-77
2023/01/13 12:47:58;;;;;;;12.20;2.63;;;7.90;99.90;;;;;;4993842;28;20046;-79
2023/01/13 12:50:24;;;;;;;12.52;2.75;;;7.90;99.90;;;;;;4979650;28;20108;-80
2023/01/13 12:52:51;;;;;;;16.20;3.13;;;7.90;99.90;;;;;;4980195;28;20484;-79
2023/01/13 12:55:32;;;;;;;14.00;2.47;;;8.00;99.90;;;;;;4974929;28;20034;-80
2023/01/13 12:58:07;;;;;;;9.35;2.67;;;8.00;99.90;;;;;;4995428;28;20038;-80
2023/01/13 13:00:39;;;;;;;10.27;2.53;;;8.00;99.90;;;;;;4993353;28;20452;-79
2023/01/13 13:03:11;;;;;;;9.75;2.45;;;8.00;99.90;;;;;;4979638;28;20145;-79
2023/01/13 13:05:58;;;;;;;11.43;2.50;;;8.00;99.90;;;;;;4987234;28;20046;-80
2023/01/13 13:08:49;;;;;;;10.23;2.13;;;8.10;99.90;;;;;;4990206;28;20393;-80
2023/01/13 13:14:00;;;;;;;11.07;2.88;;;8.10;99.90;;;;;;4983302;28;20048;-79
2023/01/13 13:16:26;;;;;;;10.73;2.10;;;8.20;99.90;;;;;;4978669;28;20041;-79
2023/01/13 13:19:18;;;;;;;12.40;2.75;;;8.20;99.90;;;;;;5000957;28;20542;-79
2023/01/13 13:22:16;;;;;;;10.35;2.42;;;8.20;99.90;;;;;;4961995;28;20460;-80
2023/01/13 13:24:49;;;;;;;11.90;2.50;;;8.30;99.90;;;;;;4992061;28;20057;-80
2023/01/13 13:27:21;;;;;;;13.75;2.65;;;8.30;99.90;;;;;;4980985;28;20166;-80
2023/01/13 13:30:08;;;;;;;10.35;2.30;;;8.30;99.90;;;;;;4986020;28;20038;-79
2023/01/13 13:32:48;;;;;;;12.13;2.70;;;8.30;99.90;;;;;;4981815;28;20046;-79
2023/01/13 13:35:39;;;;;;;14.32;2.65;;;8.40;99.90;;;;;;4980105;28;20554;-79
2023/01/13 13:47:06;;;;;;;11.32;2.53;;;8.30;99.90;;;;;;4988559;28;20045;-80
2023/01/13 13:49:44;;;;;;;11.27;3.03;;;8.20;99.90;;;;;;4972162;28;20125;-79
2023/01/13 13:52:10;;;;;;;7.68;2.00;;;8.20;99.90;;;;;;4996202;28;20045;-80
2023/01/13 13:54:39;;;;;;;9.27;2.67;;;8.20;99.90;;;;;;4998078;28;20241;-80
2023/01/13 13:57:29;;;;;;;10.10;2.42;;;8.20;99.90;;;;;;4989271;28;20034;-79
2023/01/13 13:59:57;;;;;;;16.50;3.13;;;8.20;99.90;;;;;;4979867;28;20085;-80
2023/01/13 14:02:29;;;;;;;11.77;3.55;;;8.20;99.90;;;;;;4997045;28;20034;-79
2023/01/13 14:05:15;;;;;;;10.25;2.35;;;8.10;99.90;;;;;;4997502;28;20034;-80
2023/01/13 14:07:47;;;;;;;11.57;2.30;;;8.20;99.90;;;;;;4979910;28;20043;-79
2023/01/13 14:10:28;;;;;;;8.50;2.22;;;8.20;99.90;;;;;;4988539;28;20117;-80
2023/01/13 14:12:53;;;;;;;9.10;2.05;;;8.20;99.90;;;;;;4978161;28;20038;-77